sensor_id;sensor_type;location;lat;lon;timestamp;temperature;humidity
70706;DHT22;59320;52.316;10.870;2023-05-10T00:00:43;14.20;60.60
70706;DHT22;59320;52.316;10.870;2023-05-10T00:03:10;14.10;61.00
70706;DHT22;59320;52.316;10.870;2023-05-10T00:05:37;14.00;63.00
70706;DHT22;59320;52.316;10.870;2023-05-10T00:08:04;14.00;63.00
70706;DHT22;59320;52.316;10.870;2023-05-10T00:10:31;14.00;62.00
70706;DHT22;59320;52.316;10.870;2023-05-10T00:13:00;14.00;62.30
70706;DHT22;59320;52.316;10.870;2023-05-10T00:15:27;14.00;62.10
70706;DHT22;59320;52.316;10.870;2023-05-10T00:17:56;14.10;62.00
70706;DHT22;59320;52.316;10.870;2023-05-10T00:20:23;14.00;62.20
70706;DHT22;59320;52.316;10.870;2023-05-10T00:22:50;13.90;62.80
70706;DHT22;59320;52.316;10.870;2023-05-10T00:25:17;14.00;62.40
70706;DHT22;59320;52.316;10.870;2023-05-10T00:27:44;14.00;62.60
70706;DHT22;59320;52.316;10.870;2023-05-10T00:30:13;13.90;62.80
70706;DHT22;59320;52.316;10.870;2023-05-10T00:32:40;13.90;62.70
70706;DHT22;59320;52.316;10.870;2023-05-10T00:35:07;13.90;63.00
70706;DHT22;59320;52.316;10.870;2023-05-10T00:37:35;14.00;62.70
70706;DHT22;59320;52.316;10.870;2023-05-10T00:40:03;13.90;63.00
70706;DHT22;59320;52.316;10.870;2023-05-10T00:42:31;13.90;63.20
70706;DHT22;59320;52.316;10.870;2023-05-10T00:44:59;13.90;63.40
70706;DHT22;59320;52.316;10.870;2023-05-10T00:47:27;13.80;63.70
70706;DHT22;59320;52.316;10.870;2023-05-10T00:49:55;13.80;63.80
70706;DHT22;59320;52.316;10.870;2023-05-10T00:52:23;13.80;63.80
70706;DHT22;59320;52.316;10.870;2023-05-10T00:54:51;13.70;64.20
70706;DHT22;59320;52.316;10.870;2023-05-10T00:57:19;13.70;64.90
70706;DHT22;59320;52.316;10.870;2023-05-10T00:59:46;13.70;64.90
70706;DHT22;59320;52.316;10.870;2023-05-10T01:02:13;13.70;64.20
70706;DHT22;59320;52.316;10.870;2023-05-10T01:04:43;13.70;64.30
70706;DHT22;59320;52.316;10.870;2023-05-10T01:07:10;13.70;64.90
70706;DHT22;59320;52.316;10.870;2023-05-10T01:09:38;13.70;64.30
70706;DHT22;59320;52.316;10.870;2023-05-10T01:12:05;13.80;63.70
70706;DHT22;59320;52.316;10.870;2023-05-10T01:14:34;13.80;63.80
70706;DHT22;59320;52.316;10.870;2023-05-10T01:17:02;13.80;64.80
70706;DHT22;59320;52.316;10.870;2023-05-10T01:19:31;13.60;65.80
70706;DHT22;59320;52.316;10.870;2023-05-10T01:22:09;13.60;65.90
70706;DHT22;59320;52.316;10.870;2023-05-10T01:25:09;13.60;66.10
70706;DHT22;59320;52.316;10.870;2023-05-10T01:27:51;13.60;66.50
70706;DHT22;59320;52.316;10.870;2023-05-10T01:30:50;13.60;65.90
70706;DHT22;59320;52.316;10.870;2023-05-10T01:33:26;13.50;66.60
70706;DHT22;59320;52.316;10.870;2023-05-10T01:36:03;13.30;67.20
70706;DHT22;59320;52.316;10.870;2023-05-10T01:38:40;13.30;67.20
70706;DHT22;59320;52.316;10.870;2023-05-10T01:41:14;13.40;66.90
70706;DHT22;59320;52.316;10.870;2023-05-10T01:43:48;13.40;66.60
70706;DHT22;59320;52.316;10.870;2023-05-10T01:46:24;13.50;66.10
70706;DHT22;59320;52.316;10.870;2023-05-10T01:48:57;13.60;66.10
70706;DHT22;59320;52.316;10.870;2023-05-10T01:51:31;13.60;65.80
70706;DHT22;59320;52.316;10.870;2023-05-10T01:54:03;13.60;66.40
70706;DHT22;59320;52.316;10.870;2023-05-10T01:56:33;13.60;66.40
70706;DHT22;59320;52.316;10.870;2023-05-10T01:59:06;13.50;67.30
70706;DHT22;59320;52.316;10.870;2023-05-10T02:01:35;13.50;67.00
70706;DHT22;59320;52.316;10.870;2023-05-10T02:04:05;13.40;67.70
70706;DHT22;59320;52.316;10.870;2023-05-10T02:06:33;13.40;67.30
70706;DHT22;59320;52.316;10.870;2023-05-10T02:09:01;13.40;68.00
70706;DHT22;59320;52.316;10.870;2023-05-10T02:11:30;13.40;67.20
70706;DHT22;59320;52.316;10.870;2023-05-10T02:13:58;13.30;68.00
70706;DHT22;59320;52.316;10.870;2023-05-10T02:16:29;13.20;68.60
70706;DHT22;59320;52.316;10.870;2023-05-10T02:18:58;13.20;68.00
70706;DHT22;59320;52.316;10.870;2023-05-10T02:21:28;13.20;68.60
70706;DHT22;59320;52.316;10.870;2023-05-10T02:23:57;13.20;68.50
70706;DHT22;59320;52.316;10.870;2023-05-10T02:26:25;13.20;68.90
70706;DHT22;59320;52.316;10.870;2023-05-10T02:28:53;13.20;68.60
70706;DHT22;59320;52.316;10.870;2023-05-10T02:31:22;13.20;68.50
70706;DHT22;59320;52.316;10.870;2023-05-10T02:33:50;13.20;68.70
70706;DHT22;59320;52.316;10.870;2023-05-10T02:36:18;13.20;68.50
70706;DHT22;59320;52.316;10.870;2023-05-10T02:38:49;13.30;68.30
70706;DHT22;59320;52.316;10.870;2023-05-10T02:41:19;13.30;68.20
70706;DHT22;59320;52.316;10.870;2023-05-10T02:43:49;13.40;67.50
70706;DHT22;59320;52.316;10.870;2023-05-10T02:46:17;13.40;67.30
70706;DHT22;59320;52.316;10.870;2023-05-10T02:48:44;13.40;67.50
70706;DHT22;59320;52.316;10.870;2023-05-10T02:51:12;13.40;68.00
70706;DHT22;59320;52.316;10.870;2023-05-10T02:53:45;13.40;68.70
70706;DHT22;59320;52.316;10.870;2023-05-10T02:56:16;13.40;67.40
70706;DHT22;59320;52.316;10.870;2023-05-10T02:58:47;13.40;67.60
70706;DHT22;59320;52.316;10.870;2023-05-10T03:01:14;13.40;67.60
70706;DHT22;59320;52.316;10.870;2023-05-10T03:03:41;13.40;67.80
70706;DHT22;59320;52.316;10.870;2023-05-10T03:06:08;13.40;68.40
70706;DHT22;59320;52.316;10.870;2023-05-10T03:08:35;13.50;68.00
70706;DHT22;59320;52.316;10.870;2023-05-10T03:11:20;13.40;68.40
70706;DHT22;59320;52.316;10.870;2023-05-10T03:14:00;13.40;69.90
70706;DHT22;59320;52.316;10.870;2023-05-10T03:16:33;13.40;69.20
70706;DHT22;59320;52.316;10.870;2023-05-10T03:19:08;13.30;69.30
70706;DHT22;59320;52.316;10.870;2023-05-10T03:21:41;13.30;69.50
70706;DHT22;59320;52.316;10.870;2023-05-10T03:24:12;13.30;70.40
70706;DHT22;59320;52.316;10.870;2023-05-10T03:26:45;13.30;70.40
70706;DHT22;59320;52.316;10.870;2023-05-10T03:29:17;13.30;70.10
70706;DHT22;59320;52.316;10.870;2023-05-10T03:31:45;13.30;69.80
70706;DHT22;59320;52.316;10.870;2023-05-10T03:34:14;13.30;70.20
70706;DHT22;59320;52.316;10.870;2023-05-10T03:36:41;13.30;69.90
70706;DHT22;59320;52.316;10.870;2023-05-10T03:39:08;13.30;70.20
70706;DHT22;59320;52.316;10.870;2023-05-10T03:41:36;13.40;70.10
70706;DHT22;59320;52.316;10.870;2023-05-10T03:44:05;13.40;70.70
70706;DHT22;59320;52.316;10.870;2023-05-10T03:46:32;13.30;70.50
70706;DHT22;59320;52.316;10.870;2023-05-10T03:48:59;13.40;70.50
70706;DHT22;59320;52.316;10.870;2023-05-10T03:51:26;13.40;70.50
70706;DHT22;59320;52.316;10.870;2023-05-10T03:53:54;13.40;71.30
70706;DHT22;59320;52.316;10.870;2023-05-10T03:56:21;13.30;71.30
70706;DHT22;59320;52.316;10.870;2023-05-10T03:58:48;13.40;71.00
70706;DHT22;59320;52.316;10.870;2023-05-10T04:01:17;13.40;71.00
70706;DHT22;59320;52.316;10.870;2023-05-10T04:03:44;13.40;70.80
70706;DHT22;59320;52.316;10.870;2023-05-10T04:06:11;13.40;70.70
70706;DHT22;59320;52.316;10.870;2023-05-10T04:08:39;13.50;70.80
70706;DHT22;59320;52.316;10.870;2023-05-10T04:11:06;13.60;70.80
70706;DHT22;59320;52.316;10.870;2023-05-10T04:13:34;13.50;71.00
70706;DHT22;59320;52.316;10.870;2023-05-10T04:16:01;13.70;70.60
70706;DHT22;59320;52.316;10.870;2023-05-10T04:18:29;13.70;70.30
70706;DHT22;59320;52.316;10.870;2023-05-10T04:20:57;13.80;70.60
70706;DHT22;59320;52.316;10.870;2023-05-10T04:23:24;13.80;70.60
70706;DHT22;59320;52.316;10.870;2023-05-10T04:25:51;13.80;70.60
70706;DHT22;59320;52.316;10.870;2023-05-10T04:28:18;13.90;70.40
70706;DHT22;59320;52.316;10.870;2023-05-10T04:30:46;14.00;70.50
70706;DHT22;59320;52.316;10.870;2023-05-10T04:33:13;14.00;70.50
70706;DHT22;59320;52.316;10.870;2023-05-10T04:35:42;14.10;70.40
70706;DHT22;59320;52.316;10.870;2023-05-10T04:38:10;14.20;70.30
70706;DHT22;59320;52.316;10.870;2023-05-10T04:40:37;14.30;70.00
70706;DHT22;59320;52.316;10.870;2023-05-10T04:43:04;14.30;69.90
70706;DHT22;59320;52.316;10.870;2023-05-10T04:45:31;14.50;69.80
70706;DHT22;59320;52.316;10.870;2023-05-10T04:47:58;14.60;69.20
70706;DHT22;59320;52.316;10.870;2023-05-10T04:50:25;14.60;69.20
70706;DHT22;59320;52.316;10.870;2023-05-10T04:52:53;14.70;69.20
70706;DHT22;59320;52.316;10.870;2023-05-10T04:55:21;14.90;68.70
70706;DHT22;59320;52.316;10.870;2023-05-10T04:57:48;15.00;68.60
70706;DHT22;59320;52.316;10.870;2023-05-10T05:00:15;15.10;68.30
70706;DHT22;59320;52.316;10.870;2023-05-10T05:02:43;15.20;67.80
70706;DHT22;59320;52.316;10.870;2023-05-10T05:05:11;15.20;67.70
70706;DHT22;59320;52.316;10.870;2023-05-10T05:07:38;15.20;67.40
70706;DHT22;59320;52.316;10.870;2023-05-10T05:10:08;15.30;67.30
70706;DHT22;59320;52.316;10.870;2023-05-10T05:12:35;15.30;67.10
70706;DHT22;59320;52.316;10.870;2023-05-10T05:15:03;15.50;66.60
70706;DHT22;59320;52.316;10.870;2023-05-10T05:17:30;15.40;66.40
70706;DHT22;59320;52.316;10.870;2023-05-10T05:19:57;15.50;66.40
70706;DHT22;59320;52.316;10.870;2023-05-10T05:22:24;15.40;66.30
70706;DHT22;59320;52.316;10.870;2023-05-10T05:24:53;15.40;66.30
70706;DHT22;59320;52.316;10.870;2023-05-10T05:27:22;15.40;66.50
70706;DHT22;59320;52.316;10.870;2023-05-10T05:29:50;15.30;66.50
70706;DHT22;59320;52.316;10.870;2023-05-10T05:32:17;15.30;66.60
70706;DHT22;59320;52.316;10.870;2023-05-10T05:34:44;15.30;66.60
70706;DHT22;59320;52.316;10.870;2023-05-10T05:37:13;15.20;67.10
70706;DHT22;59320;52.316;10.870;2023-05-10T05:39:41;15.20;67.40
70706;DHT22;59320;52.316;10.870;2023-05-10T05:42:08;15.20;67.70
70706;DHT22;59320;52.316;10.870;2023-05-10T05:44:37;15.20;68.10
70706;DHT22;59320;52.316;10.870;2023-05-10T05:47:05;15.20;67.80
70706;DHT22;59320;52.316;10.870;2023-05-10T05:49:37;15.20;67.60
70706;DHT22;59320;52.316;10.870;2023-05-10T05:52:06;15.20;67.70
70706;DHT22;59320;52.316;10.870;2023-05-10T05:54:34;15.10;68.00
70706;DHT22;59320;52.316;10.870;2023-05-10T05:57:04;15.10;68.00
70706;DHT22;59320;52.316;10.870;2023-05-10T05:59:31;15.10;68.70
70706;DHT22;59320;52.316;10.870;2023-05-10T06:02:00;15.10;68.30
70706;DHT22;59320;52.316;10.870;2023-05-10T06:04:27;15.20;68.20
70706;DHT22;59320;52.316;10.870;2023-05-10T06:06:54;15.20;68.40
70706;DHT22;59320;52.316;10.870;2023-05-10T06:09:21;15.30;68.50
70706;DHT22;59320;52.316;10.870;2023-05-10T06:11:49;15.40;68.40
70706;DHT22;59320;52.316;10.870;2023-05-10T06:14:16;15.40;68.30
70706;DHT22;59320;52.316;10.870;2023-05-10T06:16:43;15.50;68.40
70706;DHT22;59320;52.316;10.870;2023-05-10T06:19:12;15.60;68.40
70706;DHT22;59320;52.316;10.870;2023-05-10T06:21:39;15.60;68.50
70706;DHT22;59320;52.316;10.870;2023-05-10T06:24:06;15.70;68.50
70706;DHT22;59320;52.316;10.870;2023-05-10T06:26:33;15.90;68.20
70706;DHT22;59320;52.316;10.870;2023-05-10T06:29:00;16.00;68.10
70706;DHT22;59320;52.316;10.870;2023-05-10T06:31:27;16.10;68.00
70706;DHT22;59320;52.316;10.870;2023-05-10T06:33:54;16.20;67.20
70706;DHT22;59320;52.316;10.870;2023-05-10T06:36:23;16.30;66.80
70706;DHT22;59320;52.316;10.870;2023-05-10T06:38:51;16.50;66.80
70706;DHT22;59320;52.316;10.870;2023-05-10T06:41:19;16.60;66.20
70706;DHT22;59320;52.316;10.870;2023-05-10T06:43:46;16.70;66.10
70706;DHT22;59320;52.316;10.870;2023-05-10T06:46:13;16.80;65.60
70706;DHT22;59320;52.316;10.870;2023-05-10T06:48:40;16.80;65.20
70706;DHT22;59320;52.316;10.870;2023-05-10T06:51:07;16.90;65.20
70706;DHT22;59320;52.316;10.870;2023-05-10T06:53:35;16.80;65.40
70706;DHT22;59320;52.316;10.870;2023-05-10T06:56:03;16.90;65.20
70706;DHT22;59320;52.316;10.870;2023-05-10T06:58:30;17.00;65.00
70706;DHT22;59320;52.316;10.870;2023-05-10T07:01:02;17.10;65.00
70706;DHT22;59320;52.316;10.870;2023-05-10T07:03:29;17.10;65.00
70706;DHT22;59320;52.316;10.870;2023-05-10T07:06:00;17.10;65.00
70706;DHT22;59320;52.316;10.870;2023-05-10T07:08:30;17.10;64.70
70706;DHT22;59320;52.316;10.870;2023-05-10T07:11:01;17.30;64.50
70706;DHT22;59320;52.316;10.870;2023-05-10T07:13:29;17.30;64.90
70706;DHT22;59320;52.316;10.870;2023-05-10T07:15:57;17.40;65.40
70706;DHT22;59320;52.316;10.870;2023-05-10T07:18:24;17.50;65.00
70706;DHT22;59320;52.316;10.870;2023-05-10T07:20:51;17.60;64.50
70706;DHT22;59320;52.316;10.870;2023-05-10T07:23:18;17.70;64.50
70706;DHT22;59320;52.316;10.870;2023-05-10T07:25:46;17.70;64.40
70706;DHT22;59320;52.316;10.870;2023-05-10T07:28:15;17.80;64.40
70706;DHT22;59320;52.316;10.870;2023-05-10T07:30:43;17.90;63.90
70706;DHT22;59320;52.316;10.870;2023-05-10T07:33:12;18.00;63.70
70706;DHT22;59320;52.316;10.870;2023-05-10T07:35:39;18.10;64.80
70706;DHT22;59320;52.316;10.870;2023-05-10T07:38:06;18.20;63.90
70706;DHT22;59320;52.316;10.870;2023-05-10T07:40:34;18.20;64.40
70706;DHT22;59320;52.316;10.870;2023-05-10T07:43:01;18.20;64.70
70706;DHT22;59320;52.316;10.870;2023-05-10T07:45:29;18.40;64.60
70706;DHT22;59320;52.316;10.870;2023-05-10T07:47:56;18.50;64.50
70706;DHT22;59320;52.316;10.870;2023-05-10T07:50:24;18.50;64.50
70706;DHT22;59320;52.316;10.870;2023-05-10T07:52:51;18.70;64.80
70706;DHT22;59320;52.316;10.870;2023-05-10T07:55:18;18.70;64.50
70706;DHT22;59320;52.316;10.870;2023-05-10T07:57:46;18.90;64.00
70706;DHT22;59320;52.316;10.870;2023-05-10T08:00:17;19.10;63.60
70706;DHT22;59320;52.316;10.870;2023-05-10T08:02:46;19.10;63.50
70706;DHT22;59320;52.316;10.870;2023-05-10T08:05:13;19.20;62.60
70706;DHT22;59320;52.316;10.870;2023-05-10T08:07:40;19.20;62.80
70706;DHT22;59320;52.316;10.870;2023-05-10T08:10:09;19.20;63.10
70706;DHT22;59320;52.316;10.870;2023-05-10T08:12:37;19.30;62.60
70706;DHT22;59320;52.316;10.870;2023-05-10T08:15:05;19.40;62.30
70706;DHT22;59320;52.316;10.870;2023-05-10T08:17:33;19.40;62.90
70706;DHT22;59320;52.316;10.870;2023-05-10T08:20:01;19.40;63.80
70706;DHT22;59320;52.316;10.870;2023-05-10T08:22:28;19.40;63.40
70706;DHT22;59320;52.316;10.870;2023-05-10T08:24:55;19.50;63.20
70706;DHT22;59320;52.316;10.870;2023-05-10T08:27:22;19.50;63.20
70706;DHT22;59320;52.316;10.870;2023-05-10T08:29:49;19.50;64.00
70706;DHT22;59320;52.316;10.870;2023-05-10T08:32:16;19.40;63.80
70706;DHT22;59320;52.316;10.870;2023-05-10T08:34:43;19.30;64.60
70706;DHT22;59320;52.316;10.870;2023-05-10T08:37:12;19.10;65.40
70706;DHT22;59320;52.316;10.870;2023-05-10T08:39:39;19.00;65.10
70706;DHT22;59320;52.316;10.870;2023-05-10T08:42:06;18.90;65.60
70706;DHT22;59320;52.316;10.870;2023-05-10T08:44:36;18.90;66.20
70706;DHT22;59320;52.316;10.870;2023-05-10T08:47:05;18.80;66.90
70706;DHT22;59320;52.316;10.870;2023-05-10T08:49:33;18.80;68.90
70706;DHT22;59320;52.316;10.870;2023-05-10T08:52:02;18.60;68.90
70706;DHT22;59320;52.316;10.870;2023-05-10T08:54:35;18.60;69.80
70706;DHT22;59320;52.316;10.870;2023-05-10T08:57:03;18.50;70.00
70706;DHT22;59320;52.316;10.870;2023-05-10T08:59:30;18.50;70.80
70706;DHT22;59320;52.316;10.870;2023-05-10T09:01:58;18.40;71.90
70706;DHT22;59320;52.316;10.870;2023-05-10T09:04:25;18.30;72.80
70706;DHT22;59320;52.316;10.870;2023-05-10T09:06:53;18.30;74.40
70706;DHT22;59320;52.316;10.870;2023-05-10T09:09:21;18.20;76.30
70706;DHT22;59320;52.316;10.870;2023-05-10T09:11:50;18.10;78.30
70706;DHT22;59320;52.316;10.870;2023-05-10T09:14:18;17.80;79.60
70706;DHT22;59320;52.316;10.870;2023-05-10T09:16:46;17.70;81.00
70706;DHT22;59320;52.316;10.870;2023-05-10T09:19:14;17.70;82.70
70706;DHT22;59320;52.316;10.870;2023-05-10T09:21:41;17.90;82.20
70706;DHT22;59320;52.316;10.870;2023-05-10T09:24:08;17.90;83.20
70706;DHT22;59320;52.316;10.870;2023-05-10T09:26:35;17.80;85.00
70706;DHT22;59320;52.316;10.870;2023-05-10T09:29:13;17.90;84.90
70706;DHT22;59320;52.316;10.870;2023-05-10T09:31:45;18.00;85.70
70706;DHT22;59320;52.316;10.870;2023-05-10T09:34:16;18.00;86.10
70706;DHT22;59320;52.316;10.870;2023-05-10T09:36:52;18.00;85.50
70706;DHT22;59320;52.316;10.870;2023-05-10T09:39:19;17.90;86.50
70706;DHT22;59320;52.316;10.870;2023-05-10T09:41:47;17.90;87.40
70706;DHT22;59320;52.316;10.870;2023-05-10T09:44:18;18.00;87.20
70706;DHT22;59320;52.316;10.870;2023-05-10T09:46:49;17.90;88.00
70706;DHT22;59320;52.316;10.870;2023-05-10T09:49:18;17.80;89.30
70706;DHT22;59320;52.316;10.870;2023-05-10T09:51:46;17.70;90.50
70706;DHT22;59320;52.316;10.870;2023-05-10T09:54:14;17.50;90.70
70706;DHT22;59320;52.316;10.870;2023-05-10T09:56:42;17.50;91.40
70706;DHT22;59320;52.316;10.870;2023-05-10T09:59:10;17.50;91.50
70706;DHT22;59320;52.316;10.870;2023-05-10T10:01:39;17.40;92.10
70706;DHT22;59320;52.316;10.870;2023-05-10T10:04:09;17.30;92.00
70706;DHT22;59320;52.316;10.870;2023-05-10T10:06:36;17.30;92.50
70706;DHT22;59320;52.316;10.870;2023-05-10T10:09:04;17.40;92.70
70706;DHT22;59320;52.316;10.870;2023-05-10T10:11:32;17.60;92.30
70706;DHT22;59320;52.316;10.870;2023-05-10T10:13:59;17.80;92.10
70706;DHT22;59320;52.316;10.870;2023-05-10T10:16:27;17.90;92.20
70706;DHT22;59320;52.316;10.870;2023-05-10T10:18:56;18.00;92.30
70706;DHT22;59320;52.316;10.870;2023-05-10T10:21:24;18.10;92.40
70706;DHT22;59320;52.316;10.870;2023-05-10T10:23:51;18.10;92.50
70706;DHT22;59320;52.316;10.870;2023-05-10T10:26:19;18.00;92.80
70706;DHT22;59320;52.316;10.870;2023-05-10T10:28:51;18.00;92.80
70706;DHT22;59320;52.316;10.870;2023-05-10T10:31:27;18.20;93.20
70706;DHT22;59320;52.316;10.870;2023-05-10T10:34:01;18.00;93.40
70706;DHT22;59320;52.316;10.870;2023-05-10T10:36:30;18.10;94.00
70706;DHT22;59320;52.316;10.870;2023-05-10T10:39:00;18.10;93.10
70706;DHT22;59320;52.316;10.870;2023-05-10T10:41:32;18.30;93.60
70706;DHT22;59320;52.316;10.870;2023-05-10T10:50:03;18.10;94.10
70706;DHT22;59320;52.316;10.870;2023-05-10T10:52:31;18.20;94.40
70706;DHT22;59320;52.316;10.870;2023-05-10T10:55:02;18.00;94.50
70706;DHT22;59320;52.316;10.870;2023-05-10T10:57:32;17.90;94.70
70706;DHT22;59320;52.316;10.870;2023-05-10T11:00:20;17.80;94.60
70706;DHT22;59320;52.316;10.870;2023-05-10T11:02:49;17.80;95.50
70706;DHT22;59320;52.316;10.870;2023-05-10T11:05:40;17.90;94.90
70706;DHT22;59320;52.316;10.870;2023-05-10T11:08:13;17.90;95.20
70706;DHT22;59320;52.316;10.870;2023-05-10T11:10:48;18.10;94.80
70706;DHT22;59320;52.316;10.870;2023-05-10T11:13:27;18.20;94.80
70706;DHT22;59320;52.316;10.870;2023-05-10T11:15:55;18.20;94.90
70706;DHT22;59320;52.316;10.870;2023-05-10T11:18:26;18.00;94.50
70706;DHT22;59320;52.316;10.870;2023-05-10T11:20:57;18.10;94.70
70706;DHT22;59320;52.316;10.870;2023-05-10T11:23:30;18.10;95.10
70706;DHT22;59320;52.316;10.870;2023-05-10T11:25:58;18.10;95.10
70706;DHT22;59320;52.316;10.870;2023-05-10T11:28:26;18.10;95.50
70706;DHT22;59320;52.316;10.870;2023-05-10T11:30:54;18.10;94.90
70706;DHT22;59320;52.316;10.870;2023-05-10T11:33:21;18.00;94.90
70706;DHT22;59320;52.316;10.870;2023-05-10T11:35:48;18.00;95.00
70706;DHT22;59320;52.316;10.870;2023-05-10T11:38:17;18.00;95.20
70706;DHT22;59320;52.316;10.870;2023-05-10T11:40:44;17.90;94.90
70706;DHT22;59320;52.316;10.870;2023-05-10T11:43:12;17.80;94.90
70706;DHT22;59320;52.316;10.870;2023-05-10T11:45:40;17.80;95.00
70706;DHT22;59320;52.316;10.870;2023-05-10T11:48:09;17.70;95.10
70706;DHT22;59320;52.316;10.870;2023-05-10T11:50:36;17.70;94.80
70706;DHT22;59320;52.316;10.870;2023-05-10T11:53:03;17.70;95.20
70706;DHT22;59320;52.316;10.870;2023-05-10T11:55:33;17.50;95.40
70706;DHT22;59320;52.316;10.870;2023-05-10T11:58:01;17.40;95.90
70706;DHT22;59320;52.316;10.870;2023-05-10T12:00:29;17.50;95.60
70706;DHT22;59320;52.316;10.870;2023-05-10T12:02:57;17.50;95.00
70706;DHT22;59320;52.316;10.870;2023-05-10T12:05:24;17.60;95.40
70706;DHT22;59320;52.316;10.870;2023-05-10T12:07:52;17.40;95.20
70706;DHT22;59320;52.316;10.870;2023-05-10T12:10:26;17.60;95.40
70706;DHT22;59320;52.316;10.870;2023-05-10T12:12:54;17.70;95.30
70706;DHT22;59320;52.316;10.870;2023-05-10T12:15:24;17.70;94.70
70706;DHT22;59320;52.316;10.870;2023-05-10T12:17:51;17.70;95.30
70706;DHT22;59320;52.316;10.870;2023-05-10T12:20:19;17.70;95.20
70706;DHT22;59320;52.316;10.870;2023-05-10T12:22:49;17.80;95.30
70706;DHT22;59320;52.316;10.870;2023-05-10T12:25:17;17.70;95.20
70706;DHT22;59320;52.316;10.870;2023-05-10T12:27:56;17.70;95.40
70706;DHT22;59320;52.316;10.870;2023-05-10T12:30:24;17.80;96.30
70706;DHT22;59320;52.316;10.870;2023-05-10T12:32:52;17.70;95.60
70706;DHT22;59320;52.316;10.870;2023-05-10T12:35:19;17.50;95.80
70706;DHT22;59320;52.316;10.870;2023-05-10T12:37:48;17.40;96.10
70706;DHT22;59320;52.316;10.870;2023-05-10T12:40:15;17.50;96.00
70706;DHT22;59320;52.316;10.870;2023-05-10T12:42:42;17.50;96.00
70706;DHT22;59320;52.316;10.870;2023-05-10T12:45:12;17.70;95.40
70706;DHT22;59320;52.316;10.870;2023-05-10T12:47:39;17.90;95.30
70706;DHT22;59320;52.316;10.870;2023-05-10T12:50:06;18.20;94.90
70706;DHT22;59320;52.316;10.870;2023-05-10T12:52:34;18.20;94.50
70706;DHT22;59320;52.316;10.870;2023-05-10T12:55:01;18.20;94.10
70706;DHT22;59320;52.316;10.870;2023-05-10T12:57:29;18.20;94.80
70706;DHT22;59320;52.316;10.870;2023-05-10T12:59:56;18.40;93.80
70706;DHT22;59320;52.316;10.870;2023-05-10T13:02:24;18.30;93.90
70706;DHT22;59320;52.316;10.870;2023-05-10T13:04:52;18.30;93.80
70706;DHT22;59320;52.316;10.870;2023-05-10T13:07:19;18.60;93.50
70706;DHT22;59320;52.316;10.870;2023-05-10T13:09:46;18.50;92.70
70706;DHT22;59320;52.316;10.870;2023-05-10T13:12:13;18.50;93.10
70706;DHT22;59320;52.316;10.870;2023-05-10T13:14:40;18.60;93.10
70706;DHT22;59320;52.316;10.870;2023-05-10T13:17:07;18.90;92.80
70706;DHT22;59320;52.316;10.870;2023-05-10T13:19:36;19.10;91.80
70706;DHT22;59320;52.316;10.870;2023-05-10T13:22:03;19.20;91.60
70706;DHT22;59320;52.316;10.870;2023-05-10T13:24:30;19.20;91.00
70706;DHT22;59320;52.316;10.870;2023-05-10T13:26:58;19.30;90.50
70706;DHT22;59320;52.316;10.870;2023-05-10T13:29:25;19.20;91.00
70706;DHT22;59320;52.316;10.870;2023-05-10T13:31:53;19.10;90.60
70706;DHT22;59320;52.316;10.870;2023-05-10T13:34:20;19.10;90.60
70706;DHT22;59320;52.316;10.870;2023-05-10T13:36:49;19.20;90.50
70706;DHT22;59320;52.316;10.870;2023-05-10T13:39:16;19.40;90.50
70706;DHT22;59320;52.316;10.870;2023-05-10T13:41:43;19.50;88.50
70706;DHT22;59320;52.316;10.870;2023-05-10T13:44:12;19.40;90.20
70706;DHT22;59320;52.316;10.870;2023-05-10T13:46:39;19.40;89.30
70706;DHT22;59320;52.316;10.870;2023-05-10T13:49:06;19.70;89.20
70706;DHT22;59320;52.316;10.870;2023-05-10T13:51:34;20.00;86.90
70706;DHT22;59320;52.316;10.870;2023-05-10T13:54:02;20.10;87.50
70706;DHT22;59320;52.316;10.870;2023-05-10T13:56:30;20.20;87.00
70706;DHT22;59320;52.316;10.870;2023-05-10T13:58:58;20.50;86.30
70706;DHT22;59320;52.316;10.870;2023-05-10T14:01:25;20.60;86.70
70706;DHT22;59320;52.316;10.870;2023-05-10T14:03:52;20.80;85.30
70706;DHT22;59320;52.316;10.870;2023-05-10T14:06:22;20.80;84.20
70706;DHT22;59320;52.316;10.870;2023-05-10T14:08:49;20.70;85.20
70706;DHT22;59320;52.316;10.870;2023-05-10T14:11:20;20.80;83.80
70706;DHT22;59320;52.316;10.870;2023-05-10T14:13:47;21.20;82.50
70706;DHT22;59320;52.316;10.870;2023-05-10T14:16:14;21.20;79.70
70706;DHT22;59320;52.316;10.870;2023-05-10T14:18:41;21.30;79.20
70706;DHT22;59320;52.316;10.870;2023-05-10T14:21:11;21.30;77.90
70706;DHT22;59320;52.316;10.870;2023-05-10T14:23:38;20.90;76.20
70706;DHT22;59320;52.316;10.870;2023-05-10T14:26:05;21.20;76.30
70706;DHT22;59320;52.316;10.870;2023-05-10T14:28:34;21.10;75.70
70706;DHT22;59320;52.316;10.870;2023-05-10T14:31:01;21.60;75.00
70706;DHT22;59320;52.316;10.870;2023-05-10T14:33:28;22.50;74.40
70706;DHT22;59320;52.316;10.870;2023-05-10T14:35:55;23.20;70.30
70706;DHT22;59320;52.316;10.870;2023-05-10T14:38:23;23.70;65.80
70706;DHT22;59320;52.316;10.870;2023-05-10T14:40:50;23.70;66.90
70706;DHT22;59320;52.316;10.870;2023-05-10T14:43:17;23.30;66.80
70706;DHT22;59320;52.316;10.870;2023-05-10T14:45:46;22.40;68.70
70706;DHT22;59320;52.316;10.870;2023-05-10T14:48:13;22.00;70.60
70706;DHT22;59320;52.316;10.870;2023-05-10T14:50:43;21.80;72.10
70706;DHT22;59320;52.316;10.870;2023-05-10T14:53:10;21.80;72.60
70706;DHT22;59320;52.316;10.870;2023-05-10T14:55:37;21.40;72.20
70706;DHT22;59320;52.316;10.870;2023-05-10T14:58:05;21.00;73.50
70706;DHT22;59320;52.316;10.870;2023-05-10T15:00:32;20.90;75.70
70706;DHT22;59320;52.316;10.870;2023-05-10T15:03:01;20.90;74.10
70706;DHT22;59320;52.316;10.870;2023-05-10T15:05:28;20.80;74.70
70706;DHT22;59320;52.316;10.870;2023-05-10T15:07:55;20.90;75.40
70706;DHT22;59320;52.316;10.870;2023-05-10T15:10:22;21.00;75.80
70706;DHT22;59320;52.316;10.870;2023-05-10T15:12:50;20.90;75.30
70706;DHT22;59320;52.316;10.870;2023-05-10T15:15:17;20.60;76.40
70706;DHT22;59320;52.316;10.870;2023-05-10T15:17:44;20.60;76.80
70706;DHT22;59320;52.316;10.870;2023-05-10T15:20:13;20.40;75.70
70706;DHT22;59320;52.316;10.870;2023-05-10T15:22:40;20.40;76.90
70706;DHT22;59320;52.316;10.870;2023-05-10T15:25:07;20.20;76.80
70706;DHT22;59320;52.316;10.870;2023-05-10T15:27:35;20.20;76.80
70706;DHT22;59320;52.316;10.870;2023-05-10T15:30:03;20.00;79.20